Terminal Aerodrome Forecast
Issued by NWS

Home | Current Version | Previous Version | Text Only | Print | Product List | Glossary On
Versions: 1 2 3 4 5 6 7 8 9 10 11 12 13 14 15 16 17 18 19 20
000
FTUS42 KMHX 262320
TAFOAJ
TAF
KOAJ 262320Z 2700/2724 19008KT P6SM OVC100
     FM270700 20008KT 5SM -RA BR OVC008
     FM271400 29010G17KT 5SM -RA BR OVC010
     FM271800 36009G16KT 3SM -RA BR OVC005
      AMD LTD TO CLD VIS AND WIND=

USA.gov is the U.S. government's official web portal to all federal, state and local government web resources and services.